Eagle Lake, Illinois
Current Conditions -  °F | °C
As of 10:15 AM on Thursday 29 Jan 2015 (Local Time) from KIGQ Reporting Station
Overcast Overcast  
Wind Chill: 24°   Ceiling: 1600
Heat Index: 35°   Visibility: 7mi
Dew Point: 29°   Wind: 16mph
Humidity: 81%   Direction: 330°NNW
Pressure: 29.86"   Gusts: 25mph
Location:  41.3435°N, 87.6008°W
Report Text: KIGQ 291615Z AUTO 33014G22KT 7SM OVC016 01/M01 A2986 RMK AO2 T00141015
Loading
Personal Weather Stations






























Interactive Weather Map New forecast layout! Learn more

10-Day Weather Forecast

Advertisements
Track Severe Weather on mobile